Ali Al Salem Air Base
OKAS : now visible

Airfield :











YOU CAN JOIN US ON...

 
LOGIN :

Register | Disclaimer

   EN    FR    IT 

 









Legend :    VFR   Marginal VFR   IFR   Intensive IFR   Very Intensive IFR
Visi :
Ceiling :
>= 8 km
>= 3000ft
5 to 8 km
1000 to 3000 ft
1500m to 5 km
500 to 1000 ft
800 to 1500m
200 to 500 ft
< 800m
< 200 ft
Symbols :   Thunderstorms  Fog  Heavy snow  Heavy precipitations  Wind > 20 kt






- Airport Elevation : 472 ft


OKAS - Ali Al Salem Air Base

CURRENT METAR :
  • 202059Z 31009KT 9999 CLR 24/01 A2989 RMK SLP118 58002

EXPIRED METARs :
  • 201956Z 29008KT 8000 HZ CLR 24/M01 A2990 RMK AO2A SLP119 T02401010 $

TAF TAF OKAS
Valid from the 20 at 07:00 until the 21 at 13:00 UTC


200700Z 2007/2113 33015G25KT 9000 HZ SKC QNH2984INS
BECMG 2014/2015 31009KT 9999 NSW SKC QNH2986INS TX34/2011Z TN19/2102Z



MET'MAP, your aeronautical weather chart ! - Copyright ORBIFLY December 2007 - Disclaimer

ORBIFLY MET'MAP TEAM :

Programming & Development : Alexandra Zaïnal
Concept & original design : Baudouin d'Aumeries
Assistance for programming : Marc-Olivier Méhu
Technical & hardware support : Manuel Goepfert

Contact : metmap@orbifly.com




SOURCES & CREDITS :

   NOAA       Earth
Advisory